createdAt,value
2022-10-04T00:01:53.847Z,13.18
2022-10-04T00:04:30.619Z,13.12
2022-10-04T00:07:11.106Z,13.09
2022-10-04T00:09:47.861Z,12.94
2022-10-04T00:12:27.019Z,12.83
2022-10-04T00:15:02.679Z,13.05
2022-10-04T00:17:36.049Z,13.04
2022-10-04T00:20:43.077Z,12.90
2022-10-04T00:23:43.016Z,12.87
2022-10-04T00:26:33.979Z,12.93
2022-10-04T00:29:42.216Z,12.99
2022-10-04T00:32:33.017Z,13.00
2022-10-04T00:35:04.879Z,13.05
2022-10-04T00:38:00.220Z,13.02
2022-10-04T00:40:36.937Z,13.07
2022-10-04T00:43:12.017Z,12.85
2022-10-04T00:45:49.937Z,12.52
2022-10-04T00:48:37.259Z,12.92
2022-10-04T00:51:17.016Z,13.10
2022-10-04T00:56:51.319Z,12.92
2022-10-04T00:59:36.975Z,12.98
2022-10-04T01:02:20.865Z,13.14
2022-10-04T01:04:57.321Z,13.11
2022-10-04T01:07:33.178Z,12.77
2022-10-04T01:10:11.947Z,13.05
2022-10-04T01:12:48.769Z,12.69
2022-10-04T01:15:30.672Z,12.76
2022-10-04T01:18:18.049Z,12.78
2022-10-04T01:20:57.544Z,12.72
2022-10-04T01:23:43.685Z,12.90
2022-10-04T01:26:41.412Z,12.72
2022-10-04T01:29:17.716Z,12.64
2022-10-04T01:31:50.752Z,12.28
2022-10-04T01:34:27.217Z,12.55
2022-10-04T01:37:01.144Z,12.27
2022-10-04T01:39:42.307Z,12.44
2022-10-04T01:42:18.917Z,12.27
2022-10-04T01:44:57.667Z,12.45
2022-10-04T01:47:36.219Z,12.44
2022-10-04T01:50:15.690Z,12.50
2022-10-04T01:52:52.088Z,12.44
2022-10-04T01:55:31.848Z,12.45
2022-10-04T01:58:10.729Z,12.43
2022-10-04T02:00:46.391Z,12.22
2022-10-04T02:03:21.178Z,12.16
2022-10-04T02:05:56.496Z,12.19
2022-10-04T02:08:31.378Z,12.05
2022-10-04T02:11:07.797Z,12.34
2022-10-04T02:13:41.976Z,12.18
2022-10-04T02:16:15.028Z,12.09
2022-10-04T02:18:48.768Z,12.05
2022-10-04T02:21:22.079Z,12.09
2022-10-04T02:23:55.589Z,12.03
2022-10-04T02:26:29.552Z,11.93
2022-10-04T02:29:31.448Z,12.06
2022-10-04T02:32:46.774Z,12.44
2022-10-04T02:35:19.356Z,12.26
2022-10-04T02:37:54.020Z,12.11
2022-10-04T02:40:32.890Z,12.17
2022-10-04T02:43:13.998Z,12.18
2022-10-04T02:45:52.504Z,12.35
2022-10-04T02:48:39.712Z,12.39
2022-10-04T02:51:22.247Z,12.34
2022-10-04T02:54:03.825Z,12.00
2022-10-04T02:56:37.011Z,12.05
2022-10-04T02:59:19.299Z,12.10
2022-10-04T03:01:55.979Z,11.99
2022-10-04T03:04:30.352Z,12.07
2022-10-04T03:07:05.818Z,12.09
2022-10-04T03:09:39.635Z,11.61
2022-10-04T03:12:18.276Z,11.46
2022-10-04T03:14:52.357Z,11.71
2022-10-04T03:17:25.467Z,11.81
2022-10-04T03:19:57.365Z,11.62
2022-10-04T03:22:29.316Z,11.50
2022-10-04T03:25:01.805Z,11.34
2022-10-04T03:27:43.651Z,11.57
2022-10-04T03:30:20.876Z,11.54
2022-10-04T03:32:53.567Z,11.49
2022-10-04T03:35:31.757Z,11.46
2022-10-04T03:38:08.588Z,11.42
2022-10-04T03:40:45.415Z,11.56
2022-10-04T03:43:17.975Z,11.34
2022-10-04T03:45:52.937Z,11.55
2022-10-04T03:48:33.077Z,11.49
2022-10-04T03:51:07.388Z,11.47
2022-10-04T03:53:44.287Z,11.33
2022-10-04T03:56:19.336Z,11.59
2022-10-04T03:58:53.597Z,11.37
2022-10-04T04:01:41.143Z,11.52
2022-10-04T04:04:23.097Z,11.46
2022-10-04T04:07:04.169Z,11.72
2022-10-04T04:09:47.817Z,11.34
2022-10-04T04:12:24.036Z,11.55
2022-10-04T04:14:57.447Z,11.68
2022-10-04T04:17:43.965Z,11.77
2022-10-04T04:20:29.767Z,11.64
2022-10-04T04:23:04.965Z,11.76
2022-10-04T04:25:40.177Z,11.98
2022-10-04T04:28:25.783Z,11.84
2022-10-04T04:31:02.236Z,12.14
2022-10-04T04:33:47.469Z,11.69
2022-10-04T04:36:20.129Z,11.45
2022-10-04T04:39:03.815Z,11.66
2022-10-04T04:41:37.758Z,11.84
2022-10-04T04:44:20.475Z,11.99
2022-10-04T04:46:52.748Z,11.64
2022-10-04T04:49:27.846Z,12.02
2022-10-04T04:52:01.018Z,11.70
2022-10-04T04:54:32.526Z,11.87
2022-10-04T04:57:04.365Z,11.53
2022-10-04T04:59:36.945Z,11.76
2022-10-04T05:02:35.778Z,11.82
2022-10-04T05:05:20.668Z,11.64
2022-10-04T05:07:54.009Z,11.50
2022-10-04T05:10:33.256Z,11.76
2022-10-04T05:13:08.948Z,11.66
2022-10-04T05:15:42.487Z,11.70
2022-10-04T05:18:32.327Z,12.03
2022-10-04T05:21:14.987Z,11.64
2022-10-04T05:23:47.628Z,11.72
2022-10-04T05:26:28.387Z,12.00
2022-10-04T05:29:05.727Z,11.77
2022-10-04T05:31:48.761Z,12.35
2022-10-04T05:34:27.413Z,12.11
2022-10-04T05:37:20.875Z,11.91
2022-10-04T05:40:06.086Z,12.02
2022-10-04T05:42:45.545Z,12.26
2022-10-04T05:45:22.366Z,12.59
2022-10-04T05:47:56.489Z,12.33
2022-10-04T05:50:40.887Z,12.59
2022-10-04T05:53:29.949Z,12.15
2022-10-04T05:56:16.146Z,12.23
2022-10-04T05:59:05.194Z,12.25
2022-10-04T06:01:50.004Z,12.59
2022-10-04T06:04:40.115Z,12.88
2022-10-04T06:07:23.807Z,12.92
2022-10-04T06:10:18.907Z,12.55
2022-10-04T06:12:59.468Z,12.22
2022-10-04T06:16:00.588Z,12.54
2022-10-04T06:18:52.745Z,13.19
2022-10-04T06:21:27.550Z,12.70
2022-10-04T06:24:06.056Z,13.20
2022-10-04T06:26:46.928Z,13.30
2022-10-04T06:29:24.188Z,13.54
2022-10-04T06:32:28.827Z,13.45
2022-10-04T06:35:20.610Z,13.04
2022-10-04T06:38:23.767Z,13.27
2022-10-04T06:41:19.585Z,13.35
2022-10-04T06:44:23.134Z,13.09
2022-10-04T06:47:11.228Z,12.77
2022-10-04T06:49:49.409Z,12.75
2022-10-04T06:52:46.727Z,12.79
2022-10-04T06:55:47.428Z,12.76
2022-10-04T06:58:48.938Z,12.88
2022-10-04T07:01:30.698Z,13.10
2022-10-04T07:04:21.414Z,13.09
2022-10-04T07:07:19.977Z,12.87
2022-10-04T07:09:56.446Z,13.34
2022-10-04T07:12:28.934Z,12.88
2022-10-04T07:15:08.196Z,13.17
2022-10-04T07:17:43.847Z,12.65
2022-10-04T07:20:25.922Z,12.94
2022-10-04T07:23:01.559Z,13.04
2022-10-04T07:25:39.155Z,13.02
2022-10-04T07:28:30.762Z,13.43
2022-10-04T07:31:06.636Z,12.83
2022-10-04T07:33:48.516Z,13.06
2022-10-04T07:36:27.594Z,13.44
2022-10-04T07:39:02.405Z,13.34
2022-10-04T07:41:39.595Z,13.58
2022-10-04T07:44:22.679Z,13.46
2022-10-04T07:46:59.557Z,13.29
2022-10-04T07:49:32.476Z,13.11
2022-10-04T07:52:29.916Z,13.61
2022-10-04T07:55:10.678Z,13.23
2022-10-04T07:57:51.433Z,13.27
2022-10-04T08:00:27.958Z,13.11
2022-10-04T08:03:33.448Z,13.16
2022-10-04T08:06:13.593Z,13.19
2022-10-04T08:09:10.395Z,13.22
2022-10-04T08:11:50.603Z,12.85
2022-10-04T08:14:34.195Z,13.35
2022-10-04T08:17:20.090Z,13.77
2022-10-04T08:20:05.362Z,14.02
2022-10-04T08:22:51.802Z,14.06
2022-10-04T08:25:33.614Z,14.22
2022-10-04T08:28:29.202Z,14.73
2022-10-04T08:31:25.268Z,14.97
2022-10-04T08:34:08.444Z,14.83
2022-10-04T08:36:59.902Z,13.79
2022-10-04T08:39:48.227Z,13.73
2022-10-04T08:42:42.221Z,14.12
2022-10-04T08:45:55.147Z,14.89
2022-10-04T08:49:01.854Z,14.87
2022-10-04T08:52:05.284Z,15.24
2022-10-04T08:55:12.162Z,15.40
2022-10-04T08:58:28.676Z,15.43
2022-10-04T09:01:21.504Z,15.18
2022-10-04T09:04:31.397Z,15.35
2022-10-04T09:07:27.196Z,16.21
2022-10-04T09:10:21.928Z,15.70
2022-10-04T09:13:08.838Z,16.11
2022-10-04T09:16:09.430Z,16.95
2022-10-04T09:19:03.648Z,17.70
2022-10-04T09:22:05.291Z,16.87
2022-10-04T09:25:09.972Z,16.79
2022-10-04T09:28:07.801Z,17.39
2022-10-04T09:30:56.352Z,16.40
2022-10-04T09:33:56.107Z,16.05
2022-10-04T09:36:46.074Z,15.71
2022-10-04T09:39:34.709Z,15.65
2022-10-04T09:42:38.510Z,16.28
2022-10-04T09:45:32.279Z,16.22
2022-10-04T09:48:38.158Z,15.80
2022-10-04T09:51:33.873Z,15.82
2022-10-04T09:54:20.321Z,16.28
2022-10-04T09:57:12.230Z,16.40
2022-10-04T10:00:02.999Z,16.58
2022-10-04T10:03:15.882Z,16.58
2022-10-04T10:06:07.351Z,16.41
2022-10-04T10:08:52.030Z,16.58
2022-10-04T10:11:48.042Z,16.54
2022-10-04T10:14:54.673Z,16.51
2022-10-04T10:17:40.513Z,16.90
2022-10-04T10:20:46.194Z,16.47
2022-10-04T10:24:08.794Z,16.19
2022-10-04T10:27:06.271Z,17.10
2022-10-04T10:30:04.549Z,17.95
2022-10-04T10:33:13.992Z,16.91
2022-10-04T10:36:17.513Z,16.97
2022-10-04T10:39:06.589Z,17.28
2022-10-04T10:42:05.711Z,17.83
2022-10-04T10:45:15.312Z,18.13
2022-10-04T10:48:00.059Z,18.17
2022-10-04T10:51:03.681Z,17.98
2022-10-04T10:54:18.737Z,17.87
2022-10-04T10:57:03.417Z,17.24
2022-10-04T11:00:08.739Z,17.16
2022-10-04T11:03:13.544Z,16.65
2022-10-04T11:06:12.539Z,17.27
2022-10-04T11:09:32.098Z,17.43
2022-10-04T11:12:42.336Z,16.92
2022-10-04T11:15:53.553Z,17.43
2022-10-04T11:18:52.383Z,17.55
2022-10-04T11:21:50.900Z,17.68
2022-10-04T11:25:04.897Z,16.95
2022-10-04T11:27:57.216Z,16.68
2022-10-04T11:30:33.495Z,17.79
2022-10-04T11:33:35.175Z,18.16
2022-10-04T11:36:43.327Z,17.48
2022-10-04T11:39:44.817Z,17.53
2022-10-04T11:42:27.907Z,17.25
2022-10-04T11:45:20.899Z,17.77
2022-10-04T11:48:11.747Z,17.92
2022-10-04T11:51:18.858Z,16.98
2022-10-04T11:54:30.551Z,17.03
2022-10-04T11:57:25.460Z,17.07
2022-10-04T12:00:12.781Z,16.83
2022-10-04T12:03:22.913Z,16.67
2022-10-04T12:06:20.618Z,16.63
2022-10-04T12:09:06.815Z,16.49
2022-10-04T12:12:16.775Z,16.60
2022-10-04T12:15:20.618Z,17.59
2022-10-04T12:18:25.180Z,17.07
2022-10-04T12:21:22.258Z,17.60
2022-10-04T12:24:18.020Z,17.63
2022-10-04T12:27:23.897Z,18.16
2022-10-04T12:30:14.871Z,18.68
2022-10-04T12:32:58.494Z,18.16
2022-10-04T12:35:48.222Z,18.65
2022-10-04T12:38:46.937Z,18.65
2022-10-04T12:41:34.096Z,18.23
2022-10-04T12:44:19.857Z,18.24
2022-10-04T12:47:05.896Z,18.31
2022-10-04T12:49:51.739Z,17.64
2022-10-04T12:52:28.184Z,17.54
2022-10-04T12:55:18.662Z,18.26
2022-10-04T12:58:37.738Z,17.85
2022-10-04T13:01:27.259Z,18.14
2022-10-04T13:04:16.982Z,17.86
2022-10-04T13:07:03.779Z,18.26
2022-10-04T13:12:44.618Z,19.03
2022-10-04T13:17:23.449Z,18.94
2022-10-04T13:18:30.338Z,19.17
2022-10-04T13:21:05.900Z,19.12
2022-10-04T13:23:57.457Z,19.19
2022-10-04T13:26:40.536Z,19.25
2022-10-04T13:29:25.778Z,18.83
2022-10-04T13:32:04.823Z,19.08
2022-10-04T13:34:46.503Z,18.49
2022-10-04T13:37:35.897Z,19.03
2022-10-04T13:40:37.865Z,19.05
2022-10-04T13:43:40.903Z,19.14
2022-10-04T13:46:27.744Z,19.18
2022-10-04T13:49:08.058Z,18.68
2022-10-04T13:52:22.259Z,18.75
2022-10-04T13:55:17.457Z,18.87
2022-10-04T13:58:00.378Z,17.74
2022-10-04T14:00:47.138Z,18.27
2022-10-04T14:03:36.407Z,18.81
2022-10-04T14:06:43.947Z,18.92
2022-10-04T14:09:47.989Z,18.94
2022-10-04T14:13:06.426Z,18.37
2022-10-04T14:16:04.900Z,18.46
2022-10-04T14:19:04.071Z,18.45
2022-10-04T14:22:11.668Z,18.66
2022-10-04T14:25:25.467Z,18.60
2022-10-04T14:28:32.034Z,18.62
2022-10-04T14:31:21.438Z,18.56
2022-10-04T14:34:30.827Z,18.37
2022-10-04T14:37:29.628Z,18.39
2022-10-04T14:40:37.629Z,18.38
2022-10-04T14:43:51.630Z,18.47
2022-10-04T14:46:31.192Z,18.36
2022-10-04T14:49:14.714Z,18.32
2022-10-04T14:52:09.146Z,18.32
2022-10-04T14:54:54.111Z,18.11
2022-10-04T14:57:50.626Z,18.11
2022-10-04T15:00:27.147Z,17.99
2022-10-04T15:03:23.115Z,17.97
2022-10-04T15:06:21.593Z,18.06
2022-10-04T15:09:41.386Z,18.02
2022-10-04T15:16:12.930Z,17.86
2022-10-04T15:18:56.031Z,17.77
2022-10-04T15:21:46.354Z,17.69
2022-10-04T15:24:31.906Z,17.61
2022-10-04T15:27:38.868Z,17.45
2022-10-04T15:30:24.031Z,17.36
2022-10-04T15:33:20.316Z,17.18
2022-10-04T15:36:17.286Z,17.10
2022-10-04T15:39:03.129Z,17.24
2022-10-04T15:41:46.169Z,17.13
2022-10-04T15:44:56.168Z,17.34
2022-10-04T15:47:34.836Z,17.27
2022-10-04T15:50:28.556Z,17.12
2022-10-04T15:53:29.021Z,17.10
2022-10-04T15:56:34.499Z,17.00
2022-10-04T15:59:39.389Z,17.04
2022-10-04T16:02:29.552Z,16.88
2022-10-04T16:05:16.830Z,16.62
2022-10-04T16:08:10.147Z,16.53
2022-10-04T16:11:20.710Z,16.67
2022-10-04T16:14:28.465Z,16.63
2022-10-04T16:17:25.103Z,16.46
2022-10-04T16:20:22.052Z,16.43
2022-10-04T16:23:25.417Z,16.28
2022-10-04T16:25:59.731Z,16.28
2022-10-04T16:28:47.732Z,16.22
2022-10-04T16:31:30.513Z,16.28
2022-10-04T16:34:33.893Z,16.09
2022-10-04T16:37:18.948Z,16.02
2022-10-04T16:40:04.072Z,15.79
2022-10-04T16:42:59.999Z,15.92
2022-10-04T16:45:50.333Z,15.98
2022-10-04T16:48:35.389Z,15.92
2022-10-04T16:51:49.031Z,15.81
2022-10-04T16:54:45.629Z,15.75
2022-10-04T16:57:24.191Z,15.67
2022-10-04T17:00:01.387Z,15.51
2022-10-04T17:03:07.301Z,15.49
2022-10-04T17:05:49.372Z,15.51
2022-10-04T17:08:35.550Z,15.50
2022-10-04T17:11:30.499Z,15.42
2022-10-04T17:14:07.929Z,15.26
2022-10-04T17:16:55.512Z,15.07
2022-10-04T17:19:52.974Z,15.10
2022-10-04T17:22:35.951Z,15.03
2022-10-04T17:25:24.973Z,14.91
2022-10-04T17:28:00.857Z,14.87
2022-10-04T17:30:51.624Z,14.84
2022-10-04T17:33:45.751Z,14.82
2022-10-04T17:36:47.862Z,14.74
2022-10-04T17:39:39.965Z,14.78
2022-10-04T17:42:27.396Z,14.78
2022-10-04T17:45:22.799Z,14.73
2022-10-04T17:48:15.715Z,14.71
2022-10-04T17:51:12.134Z,14.47
2022-10-04T17:54:02.835Z,14.58
2022-10-04T17:56:40.497Z,14.50
2022-10-04T17:59:19.606Z,14.58
2022-10-04T18:02:06.222Z,14.54
2022-10-04T18:05:08.874Z,14.46
2022-10-04T18:07:51.135Z,14.40
2022-10-04T18:10:31.177Z,14.36
2022-10-04T18:13:24.955Z,14.34
2022-10-04T18:16:16.800Z,14.43
2022-10-04T18:18:51.255Z,14.39
2022-10-04T18:21:27.558Z,14.16
2022-10-04T18:24:24.375Z,14.24
2022-10-04T18:27:05.476Z,14.25
2022-10-04T18:29:43.036Z,14.17
2022-10-04T18:32:38.536Z,14.09
2022-10-04T18:35:28.159Z,13.93
2022-10-04T18:38:16.276Z,13.86
2022-10-04T18:40:59.315Z,13.76
2022-10-04T18:43:34.956Z,13.68
2022-10-04T18:46:21.436Z,13.76
2022-10-04T18:48:58.935Z,13.68
2022-10-04T18:51:34.356Z,13.80
2022-10-04T18:54:21.838Z,13.67
2022-10-04T18:57:05.516Z,13.68
2022-10-04T19:00:09.427Z,13.86
2022-10-04T19:02:52.654Z,13.80
2022-10-04T19:05:40.016Z,13.76
2022-10-04T19:08:25.734Z,13.72
2022-10-04T19:11:05.596Z,13.69
2022-10-04T19:13:47.481Z,13.57
2022-10-04T19:16:30.765Z,13.50
2022-10-04T19:19:16.857Z,13.57
2022-10-04T19:21:59.784Z,13.60
2022-10-04T19:24:58.221Z,13.56
2022-10-04T19:27:36.925Z,13.42
2022-10-04T19:30:22.329Z,13.54
2022-10-04T19:33:07.106Z,13.35
2022-10-04T19:35:56.940Z,13.26
2022-10-04T19:38:53.144Z,13.43
2022-10-04T19:41:37.281Z,13.47
2022-10-04T19:44:21.640Z,13.25
2022-10-04T19:47:05.119Z,13.17
2022-10-04T19:49:46.239Z,13.28
2022-10-04T19:52:31.921Z,13.05
2022-10-04T19:55:25.300Z,13.07
2022-10-04T19:58:05.108Z,13.25
2022-10-04T20:00:38.722Z,13.20
2022-10-04T20:03:16.584Z,13.01
2022-10-04T20:05:51.520Z,12.93
2022-10-04T20:08:55.684Z,12.82
2022-10-04T20:11:49.100Z,12.64
2022-10-04T20:14:57.080Z,12.58
2022-10-04T20:17:38.379Z,12.58
2022-10-04T20:20:16.827Z,12.46
2022-10-04T20:23:00.304Z,12.48
2022-10-04T20:26:01.969Z,12.47
2022-10-04T20:28:43.707Z,12.50
2022-10-04T20:31:57.297Z,12.50
2022-10-04T20:34:52.240Z,12.46
2022-10-04T20:38:30.732Z,12.66
2022-10-04T20:40:57.454Z,12.87
2022-10-04T20:43:30.593Z,12.62
2022-10-04T20:46:05.031Z,12.72
2022-10-04T20:48:37.194Z,12.62
2022-10-04T20:51:12.673Z,12.49
2022-10-04T20:53:51.153Z,12.56
2022-10-04T20:56:26.915Z,12.38
2022-10-04T20:59:00.696Z,12.43
2022-10-04T21:01:50.719Z,12.33
2022-10-04T21:04:31.054Z,12.30
2022-10-04T21:07:06.205Z,12.41
2022-10-04T21:09:42.333Z,12.41
2022-10-04T21:12:34.154Z,12.48
2022-10-04T21:15:10.333Z,12.41
2022-10-04T21:17:42.753Z,12.38
2022-10-04T21:20:18.655Z,12.38
2022-10-04T21:22:53.439Z,12.27
2022-10-04T21:25:35.814Z,12.29
2022-10-04T21:28:46.993Z,12.26
2022-10-04T21:31:19.235Z,12.18
2022-10-04T21:33:52.132Z,12.21
2022-10-04T21:36:24.154Z,12.22
2022-10-04T21:38:56.834Z,12.13
2022-10-04T21:41:31.253Z,12.09
2022-10-04T21:44:03.393Z,12.01
2022-10-04T21:46:35.200Z,12.20
2022-10-04T21:49:07.295Z,12.22
2022-10-04T21:51:40.731Z,12.21
2022-10-04T21:54:12.754Z,12.27
2022-10-04T21:56:47.759Z,12.27
2022-10-04T21:59:20.343Z,12.22
2022-10-04T22:01:52.243Z,12.18
2022-10-04T22:04:24.415Z,12.10
2022-10-04T22:06:56.372Z,11.95
2022-10-04T22:09:28.320Z,11.78
2022-10-04T22:12:02.713Z,11.78
2022-10-04T22:14:34.896Z,11.91
2022-10-04T22:17:06.497Z,11.96
2022-10-04T22:19:41.833Z,11.95
2022-10-04T22:22:18.033Z,11.81
2022-10-04T22:24:52.032Z,11.85
2022-10-04T22:27:26.655Z,11.98
2022-10-04T22:33:34.338Z,11.70
2022-10-04T22:36:18.464Z,11.71
2022-10-04T22:39:01.153Z,11.70
2022-10-04T22:41:43.566Z,11.66
2022-10-04T22:44:21.663Z,11.59
2022-10-04T22:46:57.940Z,11.54
2022-10-04T22:49:33.201Z,11.45
2022-10-04T22:52:09.749Z,11.44
2022-10-04T22:54:58.227Z,11.43
2022-10-04T22:57:30.698Z,11.32
2022-10-04T23:00:05.327Z,11.37
2022-10-04T23:02:37.552Z,11.27
2022-10-04T23:05:17.028Z,11.33
2022-10-04T23:07:50.629Z,11.31
2022-10-04T23:10:23.416Z,11.30
2022-10-04T23:12:55.778Z,11.25
2022-10-04T23:15:30.219Z,11.25
2022-10-04T23:18:02.580Z,11.19
2022-10-04T23:20:34.422Z,11.20
2022-10-04T23:23:17.607Z,11.14
2022-10-04T23:25:49.571Z,11.18
2022-10-04T23:28:23.312Z,11.25
2022-10-04T23:31:08.318Z,11.24
2022-10-04T23:33:40.578Z,11.20
2022-10-04T23:36:15.859Z,11.30
2022-10-04T23:38:53.118Z,11.24
2022-10-04T23:41:25.599Z,11.21
2022-10-04T23:43:58.251Z,11.07
2022-10-04T23:46:34.108Z,11.24
2022-10-04T23:49:06.508Z,11.18
2022-10-04T23:51:38.999Z,11.14
2022-10-04T23:54:16.439Z,11.21
2022-10-04T23:56:50.380Z,11.23
2022-10-04T23:59:26.911Z,11.08
